Terminal Aerodrome Forecast
Issued by NWS

Home | Current Version | Previous Version | Text Only | Print | Product List | Glossary On
Versions: 1 2 3 4 5 6 7 8 9 10 11 12 13 14 15 16 17 18
333
FTUS43 KLSX 280520
TAFUIN
TAF
KUIN 280520Z 2806/0106 17013KT P6SM VCTS OVC045CB
     FM281000 18010KT P6SM BKN015
     FM281600 19014G21KT P6SM OVC015
     FM281800 21015G23KT P6SM OVC040
     FM282300 21012KT P6SM VCTS OVC090CB
     FM010400 25009KT 5SM -SHRA VCTS SCT025CB OVC070=

USA.gov is the U.S. government's official web portal to all federal, state and local government web resources and services.